METAR = LIPX 210850Z 12003KT 060V170 CAVOK 18/07 Q1025

STAZIONE.................. LIPX
ORA METAR................. Sat Sep 21, 10:50 CEST
ORA ATTUALE............... Sat Sep 21, 11:13 CEST
TEMPO TRASCORSO........... 23 minuti fa
VENTO..................... ESE a 3 mph
VISIBILITA'............... maggiore di 10 chilometri
NUVOLE.................... cielo limpido
TEMPERATURA............... 64°F (18°C)
PUNTO RUGIADA............. 45°F (7°C)
UMIDITA'.................. 49%
PRESSIONE................. 1025 hPa (30.27 in Hg)


Informazioni per la stazione LIPX